createdAt,value
2023-05-19T00:01:37.778Z,14.50
2023-05-19T00:04:07.183Z,14.50
2023-05-19T00:06:37.264Z,14.60
2023-05-19T00:09:07.081Z,14.60
2023-05-19T00:11:36.324Z,14.60
2023-05-19T00:14:06.046Z,14.60
2023-05-19T00:16:34.841Z,14.60
2023-05-19T00:19:05.449Z,14.40
2023-05-19T00:21:33.997Z,14.50
2023-05-19T00:24:03.546Z,14.40
2023-05-19T00:26:31.586Z,14.60
2023-05-19T00:28:59.627Z,14.60
2023-05-19T00:31:27.615Z,14.60
2023-05-19T00:33:55.618Z,14.70
2023-05-19T00:36:23.834Z,14.70
2023-05-19T00:38:52.356Z,14.70
2023-05-19T00:41:22.795Z,14.60
2023-05-19T00:43:52.054Z,14.60
2023-05-19T00:46:20.433Z,14.60
2023-05-19T00:48:48.465Z,14.50
2023-05-19T00:51:17.314Z,14.50
2023-05-19T00:53:49.472Z,14.50
2023-05-19T00:56:18.444Z,14.60
2023-05-19T00:58:52.326Z,14.60
2023-05-19T01:01:21.819Z,14.60
2023-05-19T01:03:50.434Z,14.60
2023-05-19T01:06:19.379Z,14.50
2023-05-19T01:08:47.619Z,14.50
2023-05-19T01:11:15.566Z,14.50
2023-05-19T01:13:43.952Z,14.50
2023-05-19T01:16:18.899Z,14.50
2023-05-19T01:18:56.523Z,14.50
2023-05-19T01:22:01.174Z,14.50
2023-05-19T01:25:08.687Z,14.50
2023-05-19T01:27:48.281Z,14.60
2023-05-19T01:30:30.101Z,14.50
2023-05-19T01:33:02.092Z,14.40
2023-05-19T01:35:30.838Z,14.50
2023-05-19T01:38:00.200Z,14.50
2023-05-19T01:40:29.484Z,14.50
2023-05-19T01:42:59.841Z,14.40
2023-05-19T01:45:31.040Z,14.50
2023-05-19T01:48:01.775Z,14.40
2023-05-19T01:50:30.371Z,14.40
2023-05-19T01:52:59.992Z,14.40
2023-05-19T01:55:28.652Z,14.30
2023-05-19T01:58:05.365Z,14.20
2023-05-19T02:00:46.401Z,14.20
2023-05-19T02:03:30.837Z,14.30
2023-05-19T02:06:11.363Z,14.20
2023-05-19T02:08:45.570Z,14.10
2023-05-19T02:11:19.243Z,14.10
2023-05-19T02:13:51.423Z,14.10
2023-05-19T02:16:23.128Z,14.10
2023-05-19T02:18:54.086Z,14.00
2023-05-19T02:21:22.206Z,14.00
2023-05-19T02:23:50.631Z,13.90
2023-05-19T02:26:18.882Z,13.90
2023-05-19T02:28:47.006Z,13.90
2023-05-19T02:31:15.120Z,13.90
2023-05-19T02:33:44.453Z,13.80
2023-05-19T02:36:14.559Z,13.80
2023-05-19T02:38:42.484Z,13.70
2023-05-19T02:41:10.835Z,13.70
2023-05-19T02:43:38.820Z,13.70
2023-05-19T02:46:07.177Z,13.60
2023-05-19T02:48:35.149Z,13.60
2023-05-19T02:51:05.029Z,13.50
2023-05-19T02:53:33.620Z,13.50
2023-05-19T02:56:01.655Z,13.50
2023-05-19T02:58:29.733Z,13.50
2023-05-19T03:00:57.698Z,13.50
2023-05-19T03:03:26.070Z,13.50
2023-05-19T03:05:54.723Z,13.50
2023-05-19T03:08:24.183Z,13.40
2023-05-19T03:10:52.164Z,13.40
2023-05-19T03:13:20.084Z,13.30
2023-05-19T03:15:48.917Z,13.40
2023-05-19T03:18:17.117Z,13.30
2023-05-19T03:20:45.646Z,13.30
2023-05-19T03:23:13.636Z,13.20
2023-05-19T03:25:43.123Z,13.30
2023-05-19T03:28:11.176Z,13.30
2023-05-19T03:30:39.172Z,13.30
2023-05-19T03:33:07.271Z,13.10
2023-05-19T03:35:35.899Z,13.20
2023-05-19T03:38:03.892Z,13.20
2023-05-19T03:40:32.192Z,13.10
2023-05-19T03:43:02.179Z,13.10
2023-05-19T03:45:30.182Z,13.10
2023-05-19T03:47:58.372Z,13.00
2023-05-19T03:50:27.398Z,13.00
2023-05-19T03:52:55.480Z,12.90
2023-05-19T03:55:23.471Z,13.00
2023-05-19T03:57:52.733Z,12.90
2023-05-19T04:00:22.186Z,12.80
2023-05-19T04:02:50.377Z,12.80
2023-05-19T04:05:18.653Z,12.90
2023-05-19T04:07:47.345Z,12.90
2023-05-19T04:10:15.623Z,13.00
2023-05-19T04:12:47.805Z,13.00
2023-05-19T04:15:17.705Z,13.10
2023-05-19T04:17:47.383Z,13.10
2023-05-19T04:20:15.765Z,13.20
2023-05-19T04:22:43.858Z,13.20
2023-05-19T04:25:12.064Z,13.20
2023-05-19T04:27:40.084Z,13.10
2023-05-19T04:30:09.488Z,13.20
2023-05-19T04:32:37.824Z,13.20
2023-05-19T04:35:07.859Z,13.20
2023-05-19T04:37:37.447Z,13.30
2023-05-19T04:40:09.429Z,13.30
2023-05-19T04:42:37.563Z,13.20
2023-05-19T04:45:08.843Z,13.40
2023-05-19T04:47:38.188Z,13.30
2023-05-19T04:50:10.419Z,13.40
2023-05-19T04:52:38.787Z,13.40
2023-05-19T04:55:08.695Z,13.40
2023-05-19T04:57:37.644Z,13.50
2023-05-19T05:00:09.503Z,13.50
2023-05-19T05:02:38.439Z,13.60
2023-05-19T05:05:10.543Z,13.50
2023-05-19T05:07:38.539Z,13.50
2023-05-19T05:10:08.209Z,13.60
2023-05-19T05:12:36.955Z,13.60
2023-05-19T05:15:06.990Z,13.60
2023-05-19T05:17:35.799Z,13.60
2023-05-19T05:20:04.677Z,13.60
2023-05-19T05:22:34.777Z,13.70
2023-05-19T05:25:03.475Z,13.70
2023-05-19T05:27:31.446Z,13.80
2023-05-19T05:29:59.556Z,13.90
2023-05-19T05:32:27.937Z,13.90
2023-05-19T05:34:56.188Z,13.90
2023-05-19T05:37:24.741Z,14.00
2023-05-19T05:39:54.658Z,14.00
2023-05-19T05:42:22.827Z,14.10
2023-05-19T05:44:51.054Z,14.10
2023-05-19T05:47:19.619Z,14.20
2023-05-19T05:49:48.811Z,14.40
2023-05-19T05:52:18.283Z,14.60
2023-05-19T05:54:49.615Z,14.70
2023-05-19T05:57:19.635Z,14.90
2023-05-19T05:59:47.907Z,14.80
2023-05-19T06:02:16.518Z,15.10
2023-05-19T06:04:45.488Z,15.20
2023-05-19T06:07:13.504Z,15.40
2023-05-19T06:09:41.614Z,15.50
2023-05-19T06:12:12.750Z,15.70
2023-05-19T06:14:43.576Z,15.70
2023-05-19T06:17:11.897Z,15.70
2023-05-19T06:19:40.282Z,15.90
2023-05-19T06:22:09.003Z,16.00
2023-05-19T06:24:39.346Z,16.10
2023-05-19T06:27:07.706Z,16.40
2023-05-19T06:29:35.877Z,16.50
2023-05-19T06:32:06.416Z,16.70
2023-05-19T06:34:34.670Z,16.90
2023-05-19T06:37:05.227Z,16.90
2023-05-19T06:39:33.236Z,17.20
2023-05-19T06:42:01.460Z,17.30
2023-05-19T06:44:29.500Z,17.40
2023-05-19T06:46:57.718Z,17.50
2023-05-19T06:49:29.467Z,17.60
2023-05-19T06:51:57.496Z,17.70
2023-05-19T06:54:25.623Z,17.90
2023-05-19T06:56:55.856Z,17.90
2023-05-19T06:59:23.910Z,18.00
2023-05-19T07:01:52.033Z,18.00
2023-05-19T07:04:20.042Z,18.10
2023-05-19T07:06:50.390Z,18.10
2023-05-19T07:09:18.314Z,18.20
2023-05-19T07:11:46.830Z,18.20
2023-05-19T07:14:14.724Z,18.30
2023-05-19T07:16:42.819Z,18.20
2023-05-19T07:19:11.050Z,18.60
2023-05-19T07:21:39.649Z,18.50
2023-05-19T07:24:09.334Z,18.70
2023-05-19T07:26:37.196Z,18.70
2023-05-19T07:29:05.571Z,18.80
2023-05-19T07:31:33.388Z,19.10
2023-05-19T07:34:01.334Z,19.10
2023-05-19T07:36:29.121Z,19.10
2023-05-19T07:38:57.172Z,19.20
2023-05-19T07:41:26.694Z,19.40
2023-05-19T07:43:54.543Z,19.40
2023-05-19T07:46:23.110Z,19.60
2023-05-19T07:48:51.103Z,19.60
2023-05-19T07:51:19.386Z,19.50
2023-05-19T07:53:47.881Z,19.40
2023-05-19T07:56:15.829Z,19.80
2023-05-19T07:58:45.117Z,19.90
2023-05-19T08:01:13.054Z,20.00
2023-05-19T08:03:41.087Z,20.40
2023-05-19T08:06:08.908Z,20.60
2023-05-19T08:08:36.887Z,20.80
2023-05-19T08:11:05.268Z,20.90
2023-05-19T08:13:34.702Z,21.10
2023-05-19T08:16:03.965Z,21.20
2023-05-19T08:18:31.955Z,21.10
2023-05-19T08:20:59.995Z,21.20
2023-05-19T08:23:27.805Z,21.10
2023-05-19T08:25:55.780Z,21.50
2023-05-19T08:28:23.589Z,21.80
2023-05-19T08:30:52.491Z,21.80
2023-05-19T08:33:22.962Z,21.70
2023-05-19T08:35:51.176Z,22.00
2023-05-19T08:38:19.023Z,21.90
2023-05-19T08:40:48.384Z,22.30
2023-05-19T08:43:16.645Z,22.20
2023-05-19T08:45:46.829Z,22.00
2023-05-19T08:48:21.429Z,22.30
2023-05-19T08:50:58.091Z,22.30
2023-05-19T08:53:33.088Z,22.20
2023-05-19T08:56:10.173Z,21.90
2023-05-19T08:58:40.445Z,22.10
2023-05-19T09:01:08.788Z,22.10
2023-05-19T09:03:39.559Z,22.10
2023-05-19T09:06:08.909Z,22.40
2023-05-19T09:08:37.231Z,22.30
2023-05-19T09:11:05.540Z,22.30
2023-05-19T09:13:33.548Z,21.80
2023-05-19T09:16:02.063Z,22.20
2023-05-19T09:18:31.249Z,22.40
2023-05-19T09:21:02.838Z,22.40
2023-05-19T09:23:33.660Z,22.50
2023-05-19T09:26:05.055Z,22.80
2023-05-19T09:28:35.257Z,22.90
2023-05-19T09:31:10.532Z,22.70
2023-05-19T09:33:42.130Z,22.90
2023-05-19T09:36:13.170Z,23.10
2023-05-19T09:38:41.372Z,22.90
2023-05-19T09:41:10.218Z,23.00
2023-05-19T09:43:38.149Z,22.90
2023-05-19T09:46:07.367Z,22.70
2023-05-19T09:48:36.822Z,22.60
2023-05-19T09:51:09.658Z,22.80
2023-05-19T09:53:39.555Z,22.90
2023-05-19T09:56:10.514Z,23.00
2023-05-19T09:58:39.080Z,23.00
2023-05-19T10:01:08.256Z,23.10
2023-05-19T10:03:37.457Z,23.20
2023-05-19T10:06:07.394Z,23.20
2023-05-19T10:08:35.951Z,23.20
2023-05-19T10:11:06.559Z,22.80
2023-05-19T10:13:40.097Z,22.90
2023-05-19T10:16:09.859Z,22.80
2023-05-19T10:18:40.087Z,22.80
2023-05-19T10:21:09.509Z,22.80
2023-05-19T10:23:37.479Z,22.70
2023-05-19T10:26:07.788Z,22.80
2023-05-19T10:28:41.630Z,23.00
2023-05-19T10:31:14.615Z,22.80
2023-05-19T10:34:07.076Z,23.10
2023-05-19T10:36:45.733Z,22.70
2023-05-19T10:39:19.155Z,22.60
2023-05-19T10:42:02.334Z,22.90
2023-05-19T10:44:55.464Z,22.80
2023-05-19T10:47:26.867Z,22.50
2023-05-19T10:49:55.790Z,22.70
2023-05-19T10:52:26.109Z,22.90
2023-05-19T10:54:55.115Z,23.20
2023-05-19T10:57:30.700Z,23.00
2023-05-19T11:00:00.627Z,22.80
2023-05-19T11:02:42.025Z,23.30
2023-05-19T11:05:11.532Z,23.30
2023-05-19T11:07:43.376Z,23.70
2023-05-19T11:10:12.066Z,23.60
2023-05-19T11:12:46.808Z,23.50
2023-05-19T11:15:16.683Z,23.30
2023-05-19T11:17:49.397Z,23.20
2023-05-19T11:20:25.019Z,23.40
2023-05-19T11:23:05.746Z,23.30
2023-05-19T11:25:47.922Z,23.30
2023-05-19T11:28:20.272Z,23.40
2023-05-19T11:30:50.622Z,23.30
2023-05-19T11:33:19.848Z,23.50
2023-05-19T11:35:49.475Z,23.40
2023-05-19T11:38:20.461Z,23.00
2023-05-19T11:40:50.130Z,22.80
2023-05-19T11:43:19.398Z,22.70
2023-05-19T11:45:47.422Z,22.80
2023-05-19T11:48:17.402Z,23.00
2023-05-19T11:50:48.645Z,22.90
2023-05-19T11:53:17.460Z,22.90
2023-05-19T11:55:47.487Z,22.90
2023-05-19T11:58:16.510Z,23.00
2023-05-19T12:00:47.689Z,23.30
2023-05-19T12:03:17.514Z,23.60
2023-05-19T12:05:47.838Z,23.80
2023-05-19T12:08:18.254Z,23.90
2023-05-19T12:10:49.595Z,23.70
2023-05-19T12:13:17.749Z,23.60
2023-05-19T12:15:47.275Z,23.70
2023-05-19T12:18:15.223Z,23.40
2023-05-19T12:20:43.154Z,23.30
2023-05-19T12:23:11.298Z,23.50
2023-05-19T12:25:39.448Z,23.90
2023-05-19T12:28:08.326Z,23.70
2023-05-19T12:30:36.851Z,23.70
2023-05-19T12:33:06.422Z,23.70
2023-05-19T12:35:34.396Z,23.90
2023-05-19T12:38:05.837Z,23.70
2023-05-19T12:40:35.782Z,23.70
2023-05-19T12:43:04.594Z,23.90
2023-05-19T12:45:36.184Z,23.80
2023-05-19T12:48:07.180Z,23.50
2023-05-19T12:50:35.492Z,23.80
2023-05-19T12:53:03.590Z,24.00
2023-05-19T12:55:31.454Z,24.20
2023-05-19T12:57:59.526Z,229.40
2023-05-19T13:00:28.934Z,229.40
2023-05-19T13:03:00.329Z,229.40
2023-05-19T13:05:31.256Z,229.40
2023-05-19T13:08:00.464Z,229.40
2023-05-19T13:10:29.486Z,229.40
2023-05-19T13:12:58.942Z,229.40
2023-05-19T13:15:28.084Z,229.40
2023-05-19T13:17:56.220Z,229.40
2023-05-19T13:20:26.907Z,229.40
2023-05-19T13:22:58.083Z,229.40
2023-05-19T13:25:26.570Z,229.40
2023-05-19T13:27:55.485Z,229.40
2023-05-19T13:30:23.809Z,229.40
2023-05-19T13:32:52.526Z,229.40
2023-05-19T13:35:21.544Z,229.40
2023-05-19T13:37:50.857Z,229.40
2023-05-19T13:40:20.515Z,229.40
2023-05-19T13:42:48.471Z,229.40
2023-05-19T13:45:16.412Z,229.40
2023-05-19T13:47:44.286Z,229.40
2023-05-19T13:50:12.662Z,229.40
2023-05-19T13:52:40.714Z,229.40
2023-05-19T13:55:09.396Z,229.40
2023-05-19T13:57:38.620Z,229.40
2023-05-19T14:00:07.947Z,229.40
2023-05-19T14:02:36.253Z,229.40
2023-05-19T14:05:04.358Z,229.40
2023-05-19T14:07:35.701Z,229.40
2023-05-19T14:10:05.759Z,23.90
2023-05-19T14:12:46.993Z,23.90
2023-05-19T14:15:21.402Z,23.80
2023-05-19T14:17:50.549Z,23.90
2023-05-19T14:20:18.532Z,23.70
2023-05-19T14:22:46.357Z,23.90
2023-05-19T14:25:14.117Z,23.80
2023-05-19T14:27:44.485Z,23.90
2023-05-19T14:30:12.846Z,23.80
2023-05-19T14:32:42.141Z,23.60
2023-05-19T14:35:10.658Z,23.70
2023-05-19T14:37:38.538Z,23.70
2023-05-19T14:40:07.529Z,23.70
2023-05-19T14:42:35.568Z,23.90
2023-05-19T14:45:03.703Z,24.10
2023-05-19T14:47:31.783Z,24.30
2023-05-19T14:50:01.600Z,24.40
2023-05-19T14:52:29.365Z,24.10
2023-05-19T14:54:57.205Z,24.20
2023-05-19T14:57:25.743Z,23.90
2023-05-19T14:59:53.583Z,23.70
2023-05-19T15:02:21.354Z,23.50
2023-05-19T15:04:49.378Z,23.60
2023-05-19T15:07:18.676Z,23.50
2023-05-19T15:09:46.587Z,23.50
2023-05-19T15:12:14.435Z,23.80
2023-05-19T15:14:42.241Z,23.80
2023-05-19T15:17:10.589Z,23.90
2023-05-19T15:19:38.615Z,23.70
2023-05-19T15:22:06.750Z,23.40
2023-05-19T15:24:36.046Z,23.20
2023-05-19T15:27:04.374Z,23.40
2023-05-19T15:29:32.206Z,23.40
2023-05-19T15:32:00.045Z,23.40
2023-05-19T15:34:27.969Z,23.30
2023-05-19T15:36:55.810Z,23.30
2023-05-19T15:39:23.617Z,23.40
2023-05-19T15:41:52.836Z,23.30
2023-05-19T15:44:20.706Z,23.30
2023-05-19T15:46:48.656Z,23.70
2023-05-19T15:49:18.156Z,23.70
2023-05-19T15:51:46.158Z,23.50
2023-05-19T15:54:14.573Z,23.40
2023-05-19T15:56:42.378Z,23.50
2023-05-19T15:59:11.603Z,23.40
2023-05-19T16:01:40.522Z,23.40
2023-05-19T16:04:08.453Z,23.50
2023-05-19T16:06:36.331Z,23.40
2023-05-19T16:09:04.398Z,23.30
2023-05-19T16:11:32.268Z,23.10
2023-05-19T16:14:00.092Z,23.20
2023-05-19T16:16:29.388Z,23.20
2023-05-19T16:18:57.296Z,23.20
2023-05-19T16:21:25.257Z,23.10
2023-05-19T16:23:53.126Z,23.10
2023-05-19T16:26:22.560Z,23.10
2023-05-19T16:28:50.431Z,23.10
2023-05-19T16:31:18.264Z,22.90
2023-05-19T16:33:47.566Z,22.70
2023-05-19T16:36:15.550Z,22.80
2023-05-19T16:38:43.496Z,22.70
2023-05-19T16:41:12.766Z,22.80
2023-05-19T16:43:40.741Z,22.70
2023-05-19T16:46:09.880Z,22.50
2023-05-19T16:48:37.901Z,22.60
2023-05-19T16:51:07.271Z,22.50
2023-05-19T16:53:35.096Z,22.60
2023-05-19T16:56:02.994Z,22.60
2023-05-19T16:58:31.135Z,22.60
2023-05-19T17:00:59.073Z,22.70
2023-05-19T17:03:27.186Z,22.60
2023-05-19T17:05:57.758Z,22.60
2023-05-19T17:08:26.985Z,22.60
2023-05-19T17:10:54.806Z,22.60
2023-05-19T17:13:22.643Z,22.70
2023-05-19T17:15:52.814Z,22.50
2023-05-19T17:18:20.609Z,22.40
2023-05-19T17:20:48.561Z,22.50
2023-05-19T17:23:16.864Z,22.50
2023-05-19T17:25:46.101Z,22.60
2023-05-19T17:28:13.881Z,22.50
2023-05-19T17:30:42.306Z,22.50
2023-05-19T17:33:10.207Z,22.50
2023-05-19T17:35:38.053Z,22.50
2023-05-19T17:38:05.965Z,22.50
2023-05-19T17:40:34.824Z,22.50
2023-05-19T17:43:04.401Z,22.50
2023-05-19T17:45:32.277Z,22.50
2023-05-19T17:48:00.248Z,22.60
2023-05-19T17:50:28.573Z,22.60
2023-05-19T17:52:57.037Z,22.50
2023-05-19T17:55:29.708Z,22.40
2023-05-19T17:57:58.517Z,22.50
2023-05-19T18:00:28.522Z,22.50
2023-05-19T18:02:57.852Z,22.50
2023-05-19T18:05:26.656Z,22.50
2023-05-19T18:07:55.327Z,22.40
2023-05-19T18:10:24.310Z,22.40
2023-05-19T18:12:52.345Z,22.50
2023-05-19T18:15:20.236Z,22.40
2023-05-19T18:17:49.550Z,22.50
2023-05-19T18:20:17.757Z,22.40
2023-05-19T18:22:45.646Z,22.30
2023-05-19T18:25:13.487Z,22.30
2023-05-19T18:27:43.607Z,22.40
2023-05-19T18:30:12.157Z,22.30
2023-05-19T18:32:39.988Z,22.30
2023-05-19T18:35:10.452Z,22.10
2023-05-19T18:37:38.307Z,22.20
2023-05-19T18:40:07.338Z,22.20
2023-05-19T18:42:35.218Z,21.90
2023-05-19T18:45:03.071Z,22.10
2023-05-19T18:47:30.943Z,22.00
2023-05-19T18:49:58.984Z,21.90
2023-05-19T18:52:29.023Z,21.90
2023-05-19T18:54:57.051Z,21.90
2023-05-19T18:57:25.606Z,21.80
2023-05-19T18:59:53.628Z,21.70
2023-05-19T19:02:21.468Z,21.50
2023-05-19T19:04:49.445Z,21.60
2023-05-19T19:07:17.367Z,21.40
2023-05-19T19:09:46.588Z,21.50
2023-05-19T19:12:14.442Z,21.40
2023-05-19T19:14:42.558Z,21.50
2023-05-19T19:17:10.467Z,21.50
2023-05-19T19:19:38.503Z,21.50
2023-05-19T19:22:06.466Z,21.40
2023-05-19T19:24:34.293Z,21.40
2023-05-19T19:27:03.859Z,21.30
2023-05-19T19:29:32.522Z,21.30
2023-05-19T19:32:00.565Z,21.30
2023-05-19T19:34:28.719Z,21.30
2023-05-19T19:36:56.533Z,21.20
2023-05-19T19:39:24.423Z,21.10
2023-05-19T19:41:52.238Z,21.10
2023-05-19T19:44:22.784Z,21.10
2023-05-19T19:46:50.769Z,21.10
2023-05-19T19:49:18.775Z,21.10
2023-05-19T19:51:46.739Z,21.10
2023-05-19T19:54:14.729Z,21.10
2023-05-19T19:56:42.589Z,21.00
2023-05-19T19:59:11.095Z,21.00
2023-05-19T20:01:40.447Z,20.90
2023-05-19T20:04:08.850Z,20.80
2023-05-19T20:06:37.185Z,20.80
2023-05-19T20:09:05.666Z,20.70
2023-05-19T20:11:33.597Z,20.80
2023-05-19T20:14:01.471Z,20.80
2023-05-19T20:16:29.653Z,20.70
2023-05-19T20:18:59.209Z,20.60
2023-05-19T20:21:27.633Z,20.70
2023-05-19T20:23:55.589Z,20.60
2023-05-19T20:26:23.708Z,20.60
2023-05-19T20:28:51.564Z,20.50
2023-05-19T20:31:21.550Z,20.40
2023-05-19T20:33:49.687Z,20.40
2023-05-19T20:36:19.302Z,20.40
2023-05-19T20:38:47.968Z,20.30
2023-05-19T20:41:16.536Z,20.20
2023-05-19T20:43:45.004Z,20.10
2023-05-19T20:46:13.679Z,20.10
2023-05-19T20:48:41.576Z,20.00
2023-05-19T20:51:09.553Z,19.80
2023-05-19T20:53:38.749Z,19.80
2023-05-19T20:56:07.438Z,19.90
2023-05-19T20:58:35.246Z,19.80
2023-05-19T21:01:03.230Z,19.80
2023-05-19T21:03:32.135Z,19.70
2023-05-19T21:06:00.649Z,19.80
2023-05-19T21:08:28.617Z,19.80
2023-05-19T21:10:57.910Z,19.60
2023-05-19T21:13:25.847Z,19.70
2023-05-19T21:15:53.759Z,19.60
2023-05-19T21:18:21.639Z,19.70
2023-05-19T21:20:49.516Z,19.60
2023-05-19T21:23:17.457Z,19.50
2023-05-19T21:25:45.571Z,19.30
2023-05-19T21:28:14.900Z,19.50
2023-05-19T21:30:43.550Z,19.50
2023-05-19T21:33:11.609Z,19.40
2023-05-19T21:35:39.555Z,19.30
2023-05-19T21:38:22.117Z,19.40
2023-05-19T21:40:51.260Z,19.20
2023-05-19T21:43:21.494Z,19.10
2023-05-19T21:45:49.480Z,19.10
2023-05-19T21:48:17.364Z,19.00
2023-05-19T21:50:45.456Z,18.90
2023-05-19T21:53:13.255Z,18.90
2023-05-19T21:55:41.124Z,18.90
2023-05-19T21:58:08.922Z,19.00
2023-05-19T22:00:38.598Z,18.90
2023-05-19T22:03:07.726Z,18.90
2023-05-19T22:05:38.102Z,18.80
2023-05-19T22:08:06.234Z,18.90
2023-05-19T22:10:34.296Z,18.80
2023-05-19T22:13:02.225Z,18.80
2023-05-19T22:15:30.064Z,18.80
2023-05-19T22:17:59.381Z,18.80
2023-05-19T22:20:27.376Z,18.80
2023-05-19T22:22:55.152Z,18.80
2023-05-19T22:25:22.971Z,18.70
2023-05-19T22:27:50.773Z,18.70
2023-05-19T22:30:18.718Z,18.60
2023-05-19T22:32:46.656Z,18.60
2023-05-19T22:35:15.889Z,18.60
2023-05-19T22:37:43.766Z,18.60
2023-05-19T22:40:12.531Z,18.50
2023-05-19T22:42:40.381Z,18.50
2023-05-19T22:45:09.251Z,18.40
2023-05-19T22:47:37.252Z,18.30
2023-05-19T22:50:05.773Z,18.40
2023-05-19T22:52:35.109Z,18.40
2023-05-19T22:55:03.686Z,18.30
2023-05-19T22:57:32.563Z,18.30
2023-05-19T23:00:00.495Z,18.30
2023-05-19T23:02:28.386Z,18.20
2023-05-19T23:04:56.243Z,18.20
2023-05-19T23:07:24.193Z,18.00
2023-05-19T23:09:53.842Z,18.00
2023-05-19T23:12:21.680Z,17.90
2023-05-19T23:14:49.525Z,17.80
2023-05-19T23:17:17.441Z,17.80
2023-05-19T23:19:45.277Z,17.90
2023-05-19T23:22:13.199Z,17.90
2023-05-19T23:24:41.238Z,17.80
2023-05-19T23:27:10.418Z,17.80
2023-05-19T23:29:38.274Z,17.80
2023-05-19T23:32:06.906Z,17.70
2023-05-19T23:34:34.823Z,17.70
2023-05-19T23:37:02.950Z,17.80
2023-05-19T23:39:30.830Z,17.70
2023-05-19T23:41:58.732Z,17.70
2023-05-19T23:44:28.025Z,17.60
2023-05-19T23:46:56.018Z,17.60
2023-05-19T23:49:23.991Z,17.50
2023-05-19T23:51:52.988Z,17.60
2023-05-19T23:54:20.790Z,17.50
2023-05-19T23:56:48.641Z,17.40
2023-05-19T23:59:16.530Z,17.50
